createdAt,value
2023-04-18T00:01:53.713Z,1.60
2023-04-18T00:04:21.289Z,1.70
2023-04-18T00:06:50.018Z,1.48
2023-04-18T00:09:17.082Z,1.70
2023-04-18T00:11:44.408Z,1.77
2023-04-18T00:14:12.169Z,1.42
2023-04-18T00:16:39.510Z,1.70
2023-04-18T00:19:06.864Z,1.70
2023-04-18T00:21:33.949Z,1.65
2023-04-18T00:24:01.029Z,1.80
2023-04-18T00:26:28.246Z,2.15
2023-04-18T00:28:55.244Z,2.05
2023-04-18T00:31:22.146Z,1.80
2023-04-18T00:33:49.067Z,2.00
2023-04-18T00:36:15.965Z,1.73
2023-04-18T00:38:43.581Z,1.87
2023-04-18T00:41:10.438Z,2.10
2023-04-18T00:43:37.482Z,1.77
2023-04-18T00:46:04.545Z,1.75
2023-04-18T00:48:31.663Z,1.93
2023-04-18T00:51:00.393Z,2.05
2023-04-18T00:53:27.997Z,2.15
2023-04-18T00:55:55.309Z,1.80
2023-04-18T00:58:23.464Z,2.17
2023-04-18T01:00:51.005Z,1.90
2023-04-18T01:03:18.497Z,1.77
2023-04-18T01:05:46.454Z,2.00
2023-04-18T01:08:14.634Z,1.67
2023-04-18T01:10:41.896Z,1.80
2023-04-18T01:13:16.238Z,2.03
2023-04-18T01:15:47.693Z,1.87
2023-04-18T01:18:19.078Z,2.00
2023-04-18T01:20:48.173Z,2.15
2023-04-18T01:23:16.963Z,1.90
2023-04-18T01:25:44.901Z,2.00
2023-04-18T01:28:14.063Z,2.20
2023-04-18T01:30:41.219Z,1.70
2023-04-18T01:33:08.386Z,1.90
2023-04-18T01:35:35.368Z,1.90
2023-04-18T01:38:02.497Z,2.00
2023-04-18T01:40:30.319Z,2.47
2023-04-18T01:42:57.423Z,2.47
2023-04-18T01:45:24.440Z,2.28
2023-04-18T01:47:51.509Z,2.03
2023-04-18T01:50:18.503Z,2.67
2023-04-18T01:52:45.689Z,2.50
2023-04-18T01:55:12.556Z,2.17
2023-04-18T01:57:39.485Z,2.60
2023-04-18T02:00:07.717Z,2.40
2023-04-18T02:02:34.932Z,2.50
2023-04-18T02:05:02.045Z,2.47
2023-04-18T02:07:29.057Z,2.70
2023-04-18T02:09:56.067Z,2.70
2023-04-18T02:12:23.052Z,2.78
2023-04-18T02:14:54.041Z,3.03
2023-04-18T02:17:23.376Z,2.60
2023-04-18T02:19:53.986Z,2.95
2023-04-18T02:22:21.027Z,2.97
2023-04-18T02:24:47.963Z,3.20
2023-04-18T02:27:14.882Z,2.40
2023-04-18T02:29:41.935Z,2.80
2023-04-18T02:32:09.192Z,2.45
2023-04-18T02:34:36.853Z,2.67
2023-04-18T02:37:04.370Z,2.62
2023-04-18T02:39:31.573Z,2.90
2023-04-18T02:41:58.897Z,3.20
2023-04-18T02:44:25.814Z,3.10
2023-04-18T02:46:52.685Z,2.90
2023-04-18T02:49:20.032Z,2.70
2023-04-18T02:51:46.908Z,2.67
2023-04-18T02:54:13.988Z,3.15
2023-04-18T02:56:42.918Z,2.50
2023-04-18T02:59:10.049Z,2.50
2023-04-18T03:01:37.242Z,2.70
2023-04-18T03:04:04.524Z,2.53
2023-04-18T03:06:31.899Z,2.60
2023-04-18T03:08:58.940Z,2.70
2023-04-18T03:11:26.128Z,2.97
2023-04-18T03:13:53.933Z,2.90
2023-04-18T03:16:21.084Z,2.70
2023-04-18T03:18:48.265Z,2.85
2023-04-18T03:21:15.125Z,3.00
2023-04-18T03:23:42.127Z,2.70
2023-04-18T03:26:09.444Z,2.55
2023-04-18T03:28:36.403Z,2.80
2023-04-18T03:31:03.468Z,2.20
2023-04-18T03:33:30.359Z,2.72
2023-04-18T03:35:57.286Z,2.62
2023-04-18T03:38:24.395Z,2.50
2023-04-18T03:40:51.406Z,3.00
2023-04-18T03:43:21.037Z,2.87
2023-04-18T03:45:48.581Z,2.75
2023-04-18T03:48:16.005Z,2.75
2023-04-18T03:50:43.045Z,2.70
2023-04-18T03:53:10.079Z,3.00
2023-04-18T03:55:36.983Z,2.67
2023-04-18T03:58:04.092Z,2.80
2023-04-18T04:00:31.127Z,2.75
2023-04-18T04:02:58.428Z,3.65
2023-04-18T04:05:25.595Z,3.93
2023-04-18T04:07:52.546Z,3.58
2023-04-18T04:10:19.658Z,3.87
2023-04-18T04:12:47.033Z,2.97
2023-04-18T04:15:13.887Z,2.80
2023-04-18T04:17:40.976Z,2.80
2023-04-18T04:20:08.404Z,2.80
2023-04-18T04:22:36.676Z,3.28
2023-04-18T04:25:05.159Z,2.40
2023-04-18T04:27:34.076Z,2.70
2023-04-18T04:30:02.597Z,2.90
2023-04-18T04:32:30.749Z,3.05
2023-04-18T04:34:57.649Z,2.50
2023-04-18T04:37:24.535Z,2.97
2023-04-18T04:39:52.327Z,3.00
2023-04-18T04:42:19.875Z,2.73
2023-04-18T04:44:47.464Z,2.83
2023-04-18T04:47:14.362Z,2.67
2023-04-18T04:49:41.326Z,2.53
2023-04-18T04:52:08.182Z,3.20
2023-04-18T04:54:41.361Z,3.07
2023-04-18T04:57:08.196Z,3.28
2023-04-18T04:59:35.603Z,2.87
2023-04-18T05:02:02.921Z,3.10
2023-04-18T05:04:30.054Z,2.95
2023-04-18T05:06:58.019Z,3.10
2023-04-18T05:09:25.003Z,3.10
2023-04-18T05:11:51.871Z,2.72
2023-04-18T05:14:20.471Z,3.10
2023-04-18T05:16:47.679Z,3.00
2023-04-18T05:19:15.060Z,2.63
2023-04-18T05:21:42.075Z,2.87
2023-04-18T05:24:09.152Z,2.70
2023-04-18T05:26:36.083Z,2.87
2023-04-18T05:29:03.133Z,3.00
2023-04-18T05:31:30.807Z,3.10
2023-04-18T05:33:57.894Z,2.70
2023-04-18T05:36:24.865Z,2.80
2023-04-18T05:38:51.751Z,2.70
2023-04-18T05:41:18.609Z,2.83
2023-04-18T05:43:51.137Z,2.67
2023-04-18T05:46:25.061Z,2.78
2023-04-18T05:48:52.009Z,2.90
2023-04-18T05:51:19.307Z,3.00
2023-04-18T05:53:46.566Z,2.45
2023-04-18T05:56:13.503Z,2.30
2023-04-18T05:58:40.570Z,2.60
2023-04-18T06:01:07.922Z,2.00
2023-04-18T06:03:36.021Z,2.15
2023-04-18T06:06:03.344Z,2.20
2023-04-18T06:08:30.249Z,2.30
2023-04-18T06:10:57.428Z,2.17
2023-04-18T06:13:24.419Z,2.35
2023-04-18T06:15:51.252Z,2.20
2023-04-18T06:18:18.165Z,2.22
2023-04-18T06:20:45.404Z,1.70
2023-04-18T06:23:12.315Z,2.17
2023-04-18T06:25:43.301Z,1.92
2023-04-18T06:28:10.465Z,1.42
2023-04-18T06:30:37.442Z,1.50
2023-04-18T06:33:04.402Z,1.30
2023-04-18T06:35:31.863Z,2.17
2023-04-18T06:37:58.845Z,1.40
2023-04-18T06:40:25.702Z,1.48
2023-04-18T06:42:52.831Z,1.50
2023-04-18T06:45:19.831Z,1.30
2023-04-18T06:47:47.807Z,1.20
2023-04-18T06:50:15.609Z,1.45
2023-04-18T06:52:45.635Z,1.37
2023-04-18T06:55:13.650Z,1.17
2023-04-18T06:57:46.587Z,1.23
2023-04-18T07:00:19.102Z,1.40
2023-04-18T07:02:49.214Z,1.10
2023-04-18T07:05:16.231Z,1.10
2023-04-18T07:07:43.218Z,1.00
2023-04-18T07:10:11.498Z,1.20
2023-04-18T07:12:38.588Z,1.20
2023-04-18T07:15:05.986Z,1.20
2023-04-18T07:17:32.990Z,1.25
2023-04-18T07:20:00.066Z,1.00
2023-04-18T07:22:27.127Z,0.97
2023-04-18T07:24:54.721Z,0.98
2023-04-18T07:27:21.622Z,1.15
2023-04-18T07:29:48.564Z,1.17
2023-04-18T07:32:15.876Z,1.10
2023-04-18T07:34:42.815Z,1.40
2023-04-18T07:37:09.898Z,0.93
2023-04-18T07:39:36.920Z,0.98
2023-04-18T07:42:04.289Z,0.93
2023-04-18T07:44:31.780Z,1.10
2023-04-18T07:46:58.897Z,0.93
2023-04-18T07:49:26.244Z,1.20
2023-04-18T07:51:53.495Z,1.42
2023-04-18T07:54:20.441Z,1.10
2023-04-18T07:56:47.935Z,1.52
2023-04-18T07:59:16.760Z,1.20
2023-04-18T08:01:44.556Z,1.30
2023-04-18T08:04:12.856Z,1.20
2023-04-18T08:06:40.524Z,1.50
2023-04-18T08:09:09.099Z,1.40
2023-04-18T08:11:36.046Z,1.50
2023-04-18T08:14:02.949Z,1.62
2023-04-18T08:16:29.933Z,1.40
2023-04-18T08:18:57.066Z,1.33
2023-04-18T08:21:24.087Z,1.40
2023-04-18T08:23:51.715Z,1.43
2023-04-18T08:26:19.703Z,1.60
2023-04-18T08:28:46.807Z,1.70
2023-04-18T08:31:16.389Z,1.65
2023-04-18T08:33:43.628Z,1.33
2023-04-18T08:36:11.647Z,1.50
2023-04-18T08:38:38.850Z,1.40
2023-04-18T08:41:05.751Z,1.50
2023-04-18T08:43:32.866Z,1.70
2023-04-18T08:46:01.085Z,1.60
2023-04-18T08:48:28.433Z,1.27
2023-04-18T08:50:59.690Z,1.15
2023-04-18T08:53:27.180Z,0.90
2023-04-18T08:55:58.059Z,0.90
2023-04-18T08:58:27.605Z,0.80
2023-04-18T09:00:55.262Z,1.20
2023-04-18T09:03:43.272Z,1.10
2023-04-18T09:06:25.547Z,1.00
2023-04-18T09:08:59.124Z,1.15
2023-04-18T09:11:29.978Z,1.00
2023-04-18T09:13:59.321Z,1.00
2023-04-18T09:16:27.831Z,1.10
2023-04-18T09:19:18.563Z,0.90
2023-04-18T09:21:50.262Z,1.20
2023-04-18T09:24:24.435Z,1.20
2023-04-18T09:26:53.884Z,1.10
2023-04-18T09:29:24.561Z,1.12
2023-04-18T09:32:01.847Z,1.05
2023-04-18T09:34:29.406Z,1.17
2023-04-18T09:37:14.478Z,0.95
2023-04-18T09:39:44.270Z,1.10
2023-04-18T09:42:11.666Z,1.20
2023-04-18T09:44:57.392Z,1.10
2023-04-18T09:47:24.516Z,1.15
2023-04-18T09:49:51.514Z,0.90
2023-04-18T09:52:20.635Z,1.00
2023-04-18T09:54:49.506Z,0.95
2023-04-18T09:57:17.868Z,1.00
2023-04-18T09:59:51.935Z,0.90
2023-04-18T10:02:22.288Z,0.80
2023-04-18T10:04:54.532Z,0.77
2023-04-18T10:07:24.763Z,0.80
2023-04-18T10:09:52.395Z,0.90
2023-04-18T10:12:20.053Z,0.80
2023-04-18T10:14:47.338Z,0.75
2023-04-18T10:17:15.613Z,0.90
2023-04-18T10:19:46.050Z,0.65
2023-04-18T10:22:13.579Z,0.60
2023-04-18T10:24:50.046Z,1.27
2023-04-18T10:27:17.878Z,0.68
2023-04-18T10:29:51.960Z,0.93
2023-04-18T10:32:28.716Z,0.80
2023-04-18T10:34:56.280Z,0.70
2023-04-18T10:37:25.952Z,0.75
2023-04-18T10:39:58.367Z,0.73
2023-04-18T10:42:45.535Z,0.80
2023-04-18T10:45:25.809Z,1.00
2023-04-18T10:48:32.825Z,0.90
2023-04-18T10:51:16.599Z,0.80
2023-04-18T10:53:57.868Z,1.02
2023-04-18T10:56:26.206Z,0.90
2023-04-18T10:58:54.075Z,0.90
2023-04-18T11:01:33.248Z,0.80
2023-04-18T11:04:03.447Z,0.90
2023-04-18T11:06:31.394Z,1.42
2023-04-18T11:09:14.513Z,0.90
2023-04-18T11:11:42.451Z,0.80
2023-04-18T11:14:09.603Z,0.80
2023-04-18T11:16:37.002Z,0.98
2023-04-18T11:19:25.904Z,0.80
2023-04-18T11:21:52.941Z,0.70
2023-04-18T11:24:24.508Z,0.60
2023-04-18T11:26:56.287Z,0.60
2023-04-18T11:29:23.808Z,0.60
2023-04-18T11:31:55.987Z,0.62
2023-04-18T11:34:32.566Z,0.60
2023-04-18T11:37:00.352Z,0.80
2023-04-18T11:39:27.969Z,0.60
2023-04-18T11:41:57.158Z,0.70
2023-04-18T11:44:25.382Z,0.70
2023-04-18T11:46:53.435Z,0.60
2023-04-18T11:49:28.923Z,0.70
2023-04-18T11:51:56.502Z,0.70
2023-04-18T11:54:43.418Z,0.60
2023-04-18T11:57:30.085Z,0.65
2023-04-18T11:59:59.276Z,0.63
2023-04-18T12:02:47.074Z,0.93
2023-04-18T12:05:25.914Z,0.70
2023-04-18T12:07:53.337Z,0.70
2023-04-18T12:10:20.192Z,0.73
2023-04-18T12:12:56.501Z,0.60
2023-04-18T12:15:27.293Z,0.90
2023-04-18T12:18:00.031Z,1.00
2023-04-18T12:20:46.360Z,0.70
2023-04-18T12:23:29.784Z,0.60
2023-04-18T12:26:04.719Z,0.80
2023-04-18T12:28:32.788Z,0.88
2023-04-18T12:30:59.821Z,0.90
2023-04-18T12:33:26.978Z,0.73
2023-04-18T12:35:54.167Z,0.70
2023-04-18T12:38:22.357Z,0.70
2023-04-18T12:40:50.907Z,0.73
2023-04-18T12:43:18.713Z,0.80
2023-04-18T12:45:46.750Z,0.80
2023-04-18T12:48:14.049Z,0.82
2023-04-18T12:50:40.979Z,0.80
2023-04-18T12:53:08.215Z,1.00
2023-04-18T12:55:35.164Z,0.70
2023-04-18T12:58:02.254Z,1.05
2023-04-18T13:00:31.427Z,0.70
2023-04-18T13:02:58.801Z,1.50
2023-04-18T13:05:29.871Z,0.75
2023-04-18T13:08:15.307Z,0.70
2023-04-18T13:10:44.589Z,1.35
2023-04-18T13:13:11.961Z,0.90
2023-04-18T13:15:38.974Z,0.90
2023-04-18T13:18:06.425Z,0.95
2023-04-18T13:20:34.663Z,1.10
2023-04-18T13:23:02.972Z,1.02
2023-04-18T13:25:30.093Z,0.98
2023-04-18T13:27:58.602Z,1.30
2023-04-18T13:30:26.092Z,0.77
2023-04-18T13:32:55.055Z,1.00
2023-04-18T13:35:22.608Z,0.95
2023-04-18T13:37:49.674Z,0.90
2023-04-18T13:40:16.709Z,1.27
2023-04-18T13:42:43.581Z,1.20
2023-04-18T13:45:11.242Z,1.27
2023-04-18T13:47:38.371Z,1.70
2023-04-18T13:50:07.054Z,0.80
2023-04-18T13:52:34.397Z,0.60
2023-04-18T13:55:01.900Z,0.80
2023-04-18T13:57:32.151Z,0.70
2023-04-18T13:59:59.441Z,0.90
2023-04-18T14:02:26.718Z,1.00
2023-04-18T14:04:54.936Z,0.80
2023-04-18T14:07:22.132Z,0.82
2023-04-18T14:09:49.296Z,1.08
2023-04-18T14:12:16.207Z,0.95
2023-04-18T14:14:43.196Z,0.85
2023-04-18T14:17:10.375Z,1.90
2023-04-18T14:19:37.328Z,1.12
2023-04-18T14:22:04.507Z,1.27
2023-04-18T14:24:31.475Z,1.12
2023-04-18T14:26:58.420Z,1.25
2023-04-18T14:29:25.525Z,1.00
2023-04-18T14:31:52.442Z,1.10
2023-04-18T14:34:19.361Z,1.27
2023-04-18T14:36:46.986Z,1.10
2023-04-18T14:39:14.086Z,1.00
2023-04-18T14:41:41.603Z,1.00
2023-04-18T14:44:08.861Z,1.00
2023-04-18T14:46:35.763Z,1.08
2023-04-18T14:49:03.215Z,1.20
2023-04-18T14:51:31.266Z,1.27
2023-04-18T14:53:58.580Z,1.03
2023-04-18T14:56:26.559Z,1.55
2023-04-18T14:58:53.593Z,1.20
2023-04-18T15:01:21.024Z,1.52
2023-04-18T15:03:51.064Z,1.15
2023-04-18T15:06:18.732Z,1.20
2023-04-18T15:08:49.997Z,0.95
2023-04-18T15:11:17.360Z,1.10
2023-04-18T15:13:44.824Z,1.20
2023-04-18T15:16:12.108Z,0.90
2023-04-18T15:18:39.713Z,1.13
2023-04-18T15:21:07.736Z,1.10
2023-04-18T15:23:35.387Z,1.30
2023-04-18T15:26:03.309Z,0.98
2023-04-18T15:28:31.199Z,1.23
2023-04-18T15:30:58.894Z,1.07
2023-04-18T15:33:26.532Z,0.95
2023-04-18T15:35:55.543Z,0.98
2023-04-18T15:38:22.816Z,1.00
2023-04-18T15:40:50.108Z,1.00
2023-04-18T15:43:17.619Z,1.33
2023-04-18T15:45:44.741Z,1.00
2023-04-18T15:48:13.309Z,1.37
2023-04-18T15:50:42.213Z,1.23
2023-04-18T15:53:09.508Z,1.23
2023-04-18T15:55:37.040Z,1.00
2023-04-18T15:58:03.961Z,1.40
2023-04-18T16:00:31.067Z,1.17
2023-04-18T16:02:58.565Z,1.30
2023-04-18T16:05:26.431Z,1.10
2023-04-18T16:07:56.188Z,1.30
2023-04-18T16:10:24.027Z,1.30
2023-04-18T16:12:51.028Z,1.20
2023-04-18T16:15:17.961Z,1.20
2023-04-18T16:17:45.620Z,1.60
2023-04-18T16:20:13.214Z,1.30
2023-04-18T16:22:40.588Z,1.25
2023-04-18T16:25:08.408Z,1.30
2023-04-18T16:27:35.500Z,1.30
2023-04-18T16:30:03.455Z,1.40
2023-04-18T16:32:31.866Z,1.00
2023-04-18T16:34:58.894Z,1.20
2023-04-18T16:37:26.392Z,1.10
2023-04-18T16:39:53.572Z,1.10
2023-04-18T16:42:20.647Z,1.10
2023-04-18T16:44:48.226Z,1.10
2023-04-18T16:47:15.410Z,1.12
2023-04-18T16:49:44.126Z,1.15
2023-04-18T16:52:12.396Z,1.40
2023-04-18T16:54:40.681Z,1.48
2023-04-18T16:57:08.004Z,1.70
2023-04-18T16:59:35.033Z,1.40
2023-04-18T17:02:10.179Z,1.40
2023-04-18T17:04:37.582Z,1.50
2023-04-18T17:07:04.706Z,1.50
2023-04-18T17:09:32.010Z,1.63
2023-04-18T17:11:59.476Z,1.30
2023-04-18T17:14:26.793Z,1.40
2023-04-18T17:16:54.003Z,1.00
2023-04-18T17:19:23.454Z,1.37
2023-04-18T17:21:51.545Z,1.23
2023-04-18T17:24:18.867Z,1.58
2023-04-18T17:26:45.870Z,1.40
2023-04-18T17:29:13.067Z,1.30
2023-04-18T17:31:40.504Z,1.52
2023-04-18T17:34:07.817Z,1.87
2023-04-18T17:36:35.126Z,2.00
2023-04-18T17:39:09.683Z,1.67
2023-04-18T17:41:38.577Z,1.40
2023-04-18T17:44:08.734Z,1.52
2023-04-18T17:46:36.818Z,1.57
2023-04-18T17:49:05.393Z,1.83
2023-04-18T17:51:32.801Z,1.85
2023-04-18T17:54:00.358Z,1.90
2023-04-18T17:56:29.229Z,2.50
2023-04-18T17:58:57.830Z,2.10
2023-04-18T18:01:26.580Z,2.17
2023-04-18T18:03:54.579Z,2.30
2023-04-18T18:06:22.027Z,1.98
2023-04-18T18:08:49.710Z,2.47
2023-04-18T18:11:22.194Z,2.50
2023-04-18T18:13:55.855Z,3.20
2023-04-18T18:16:24.606Z,3.03
2023-04-18T18:18:53.060Z,3.40
2023-04-18T18:21:20.516Z,3.40
2023-04-18T18:23:48.253Z,3.37
2023-04-18T18:26:16.427Z,3.78
2023-04-18T18:28:44.427Z,3.37
2023-04-18T18:31:12.118Z,2.58
2023-04-18T18:33:41.440Z,3.10
2023-04-18T18:36:09.327Z,3.60
2023-04-18T18:38:38.204Z,2.83
2023-04-18T18:41:06.513Z,3.15
2023-04-18T18:43:34.805Z,2.60
2023-04-18T18:46:02.648Z,2.30
2023-04-18T18:48:31.743Z,2.30
2023-04-18T18:51:00.926Z,2.75
2023-04-18T18:53:28.168Z,2.75
2023-04-18T18:55:55.167Z,3.00
2023-04-18T18:58:23.117Z,3.03
2023-04-18T19:00:51.690Z,3.17
2023-04-18T19:03:21.975Z,2.60
2023-04-18T19:05:50.385Z,2.70
2023-04-18T19:08:18.078Z,2.75
2023-04-18T19:10:47.238Z,3.13
2023-04-18T19:13:19.200Z,2.77
2023-04-18T19:15:46.636Z,2.75
2023-04-18T19:18:14.694Z,3.10
2023-04-18T19:20:42.976Z,2.30
2023-04-18T19:23:10.556Z,2.80
2023-04-18T19:25:38.973Z,2.40
2023-04-18T19:28:07.257Z,2.33
2023-04-18T19:30:34.998Z,2.25
2023-04-18T19:33:03.204Z,2.47
2023-04-18T19:35:31.076Z,2.40
2023-04-18T19:38:01.782Z,2.30
2023-04-18T19:40:30.332Z,2.80
2023-04-18T19:42:59.108Z,2.33
2023-04-18T19:45:26.835Z,2.72
2023-04-18T19:47:56.824Z,2.12
2023-04-18T19:50:24.490Z,2.43
2023-04-18T19:52:52.374Z,2.20
2023-04-18T19:55:19.937Z,1.87
2023-04-18T19:57:47.836Z,2.00
2023-04-18T20:00:16.018Z,2.53
2023-04-18T20:02:44.887Z,2.30
2023-04-18T20:05:12.961Z,4.03
2023-04-18T20:07:41.989Z,3.80
2023-04-18T20:10:09.991Z,4.00
2023-04-18T20:12:41.793Z,3.17
2023-04-18T20:15:09.213Z,2.47
2023-04-18T20:17:36.492Z,2.10
2023-04-18T20:20:05.680Z,2.10
2023-04-18T20:22:33.162Z,2.25
2023-04-18T20:25:02.316Z,1.80
2023-04-18T20:27:29.752Z,1.70
2023-04-18T20:29:57.484Z,1.55
2023-04-18T20:32:25.200Z,1.45
2023-04-18T20:34:52.564Z,1.65
2023-04-18T20:37:20.233Z,1.33
2023-04-18T20:39:48.095Z,1.50
2023-04-18T20:42:16.073Z,1.45
2023-04-18T20:44:44.933Z,1.27
2023-04-18T20:47:13.834Z,1.48
2023-04-18T20:49:42.512Z,1.60
2023-04-18T20:52:09.806Z,1.40
2023-04-18T20:54:36.964Z,1.35
2023-04-18T20:57:04.221Z,1.50
2023-04-18T20:59:31.145Z,1.58
2023-04-18T21:01:58.610Z,1.37
2023-04-18T21:04:25.938Z,1.70
2023-04-18T21:06:53.111Z,1.40
2023-04-18T21:09:20.129Z,1.40
2023-04-18T21:11:47.101Z,1.40
2023-04-18T21:14:14.318Z,1.67
2023-04-18T21:16:41.384Z,1.10
2023-04-18T21:19:08.742Z,1.67
2023-04-18T21:21:36.711Z,1.55
2023-04-18T21:24:03.817Z,1.42
2023-04-18T21:26:30.761Z,1.50
2023-04-18T21:29:04.375Z,1.63
2023-04-18T21:31:33.390Z,1.60
2023-04-18T21:34:03.130Z,1.70
2023-04-18T21:36:31.272Z,1.48
2023-04-18T21:39:00.927Z,1.70
2023-04-18T21:41:28.119Z,1.90
2023-04-18T21:43:55.103Z,1.40
2023-04-18T21:46:22.220Z,1.60
2023-04-18T21:48:49.475Z,1.50
2023-04-18T21:51:17.394Z,1.33
2023-04-18T21:53:44.612Z,1.97
2023-04-18T21:56:11.636Z,1.87
2023-04-18T21:58:38.623Z,1.55
2023-04-18T22:01:06.007Z,1.90
2023-04-18T22:03:34.217Z,1.50
2023-04-18T22:06:01.737Z,1.60
2023-04-18T22:08:29.506Z,1.58
2023-04-18T22:10:58.333Z,1.77
2023-04-18T22:13:30.236Z,1.70
2023-04-18T22:15:58.380Z,1.98
2023-04-18T22:18:25.444Z,1.67
2023-04-18T22:20:53.688Z,1.90
2023-04-18T22:23:20.778Z,2.15
2023-04-18T22:25:48.416Z,1.77
2023-04-18T22:28:15.682Z,1.60
2023-04-18T22:30:42.580Z,1.60
2023-04-18T22:33:09.510Z,1.85
2023-04-18T22:35:36.410Z,1.70
2023-04-18T22:38:03.358Z,1.70
2023-04-18T22:40:30.226Z,1.52
2023-04-18T22:42:57.142Z,1.80
2023-04-18T22:45:24.067Z,2.00
2023-04-18T22:47:51.029Z,1.48
2023-04-18T22:50:18.153Z,1.80
2023-04-18T22:52:44.997Z,1.62
2023-04-18T22:55:13.765Z,1.77
2023-04-18T22:57:40.724Z,2.10
2023-04-18T23:00:10.220Z,2.35
2023-04-18T23:02:37.274Z,1.95
2023-04-18T23:05:06.918Z,1.95
2023-04-18T23:07:33.834Z,1.97
2023-04-18T23:10:00.832Z,2.03
2023-04-18T23:12:27.861Z,1.77
2023-04-18T23:14:54.727Z,1.75
2023-04-18T23:17:21.552Z,1.67
2023-04-18T23:19:48.457Z,1.80
2023-04-18T23:22:15.424Z,2.10
2023-04-18T23:24:42.315Z,1.95
2023-04-18T23:27:09.204Z,2.17
2023-04-18T23:29:38.019Z,1.85
2023-04-18T23:32:06.352Z,1.90
2023-04-18T23:34:33.457Z,1.75
2023-04-18T23:37:00.905Z,1.80
2023-04-18T23:39:27.861Z,1.60
2023-04-18T23:42:12.829Z,1.80
2023-04-18T23:44:58.994Z,1.50
2023-04-18T23:47:25.966Z,1.90
2023-04-18T23:49:52.989Z,1.85
2023-04-18T23:52:19.928Z,1.87
2023-04-18T23:54:46.744Z,2.00
2023-04-18T23:57:13.609Z,1.70
2023-04-18T23:59:40.497Z,2.28
